Terminal Aerodrome Forecast
Issued by NWS Green Bay, WI

Home | Current Version | Previous Version | Graphics & Text | Print | Product List | Glossary On
Versions: 1 2 3 4 5 6 7 8 9 10 11 12 13 14 15 16 17 18 19 20 21 22 23 24 25 26 27 28
000
FTUS43 KGRB 281727
TAFGRB
TAF
KGRB 281727Z 2818/2918 21009KT P6SM SCT050 OVC100
     FM282100 22010KT P6SM SCT040 OVC080
      TEMPO 2822/2902 5SM -SHRA BR SCT020 OVC040
     FM290200 18005KT 5SM -SHRA BR BKN020 OVC040
     FM290700 VRB03KT 3SM -SHRA BR BKN009 OVC018
     FM291500 12005KT 5SM BR SCT009 OVC020 PROB30 2915/2918 2SM
      -SHRA BR BKN009=

USA.gov is the U.S. government's official web portal to all federal, state and local government web resources and services.